Time;durP1;ratioP1;P1;durP2;ratioP2;P2;SDS_P1;SDS_P2;PMS_P1;PMS_P2;Temp;Humidity;BMP_temperature;BMP_pressure;BME280_temperature;BME280_humidity;BME280_pressure;Samples;Min_cycle;Max_cycle;Signal;HPM_P1;HPM_P2
2021/05/13 00:01:22;;;;;;;5.75;4.13;;;;;;;;;;4908816;28;20040;-85
2021/05/13 00:03:51;;;;;;;7.20;3.90;;;;;;;;;;4919084;28;20056;-85
2021/05/13 00:06:18;;;;;;;6.22;3.80;;;;;;;;;;4933790;28;20035;-84
2021/05/13 00:08:44;;;;;;;5.85;3.80;;;;;;;;;;4937150;28;20255;-84
2021/05/13 00:11:11;;;;;;;5.30;4.03;;;;;;;;;;4918268;28;20036;-85
2021/05/13 00:13:39;;;;;;;7.13;4.22;;;;;;;;;;4943991;28;20094;-85
2021/05/13 00:16:07;;;;;;;6.65;4.22;;;;;;;;;;4922555;28;20096;-84
2021/05/13 00:18:34;;;;;;;7.05;4.43;;;;;;;;;;4934365;28;20040;-85
2021/05/13 00:21:00;;;;;;;5.13;3.63;;;;;;;;;;4925733;28;20607;-85
2021/05/13 00:23:27;;;;;;;5.90;3.90;;;;;;;;;;4921287;28;20056;-86
2021/05/13 00:25:53;;;;;;;7.78;4.53;;;;;;;;;;4917376;28;20071;-85
2021/05/13 00:28:23;;;;;;;6.22;4.03;;;;;;;;;;4924433;28;20509;-85
2021/05/13 00:30:49;;;;;;;6.05;4.32;;;;;;;;;;4925808;28;20824;-85
2021/05/13 00:33:16;;;;;;;6.80;4.05;;;;;;;;;;4925740;28;20499;-85
2021/05/13 00:35:42;;;;;;;6.95;3.92;;;;;;;;;;4914099;29;20075;-85
2021/05/13 00:38:09;;;;;;;6.63;4.70;;;;;;;;;;4935100;28;20699;-85
2021/05/13 00:40:36;;;;;;;5.95;4.07;;;;;;;;;;4926486;28;20041;-86
2021/05/13 00:43:02;;;;;;;7.88;4.43;;;;;;;;;;4925475;28;20124;-86
2021/05/13 00:45:29;;;;;;;6.80;4.30;;;;;;;;;;4919261;29;20067;-85
2021/05/13 00:50:25;;;;;;;6.43;4.13;;;;;;;;;;4936647;28;20060;-85
2021/05/13 00:52:52;;;;;;;6.68;4.22;;;;;;;;;;4924709;28;20034;-85
2021/05/13 00:55:20;;;;;;;6.15;4.13;;;;;;;;;;4900623;28;20031;-85
2021/05/13 00:57:47;;;;;;;6.90;4.40;;;;;;;;;;4930646;28;20126;-85
2021/05/13 01:03:00;;;;;;;6.43;4.40;;;;;;;;;;4926232;28;20143;-86
2021/05/13 01:05:27;;;;;;;6.95;4.50;;;;;;;;;;4933664;28;20119;-85
2021/05/13 01:07:54;;;;;;;6.25;4.05;;;;;;;;;;4936803;28;20071;-86
2021/05/13 01:10:20;;;;;;;6.40;4.22;;;;;;;;;;4923052;28;20615;-85
2021/05/13 01:12:48;;;;;;;6.93;4.25;;;;;;;;;;4945287;28;20492;-85
2021/05/13 01:15:25;;;;;;;6.20;3.75;;;;;;;;;;4947011;28;20130;-85
2021/05/13 01:17:58;;;;;;;6.75;4.18;;;;;;;;;;4934922;28;20523;-85
2021/05/13 01:20:26;;;;;;;6.13;4.00;;;;;;;;;;4921871;28;20630;-85
2021/05/13 01:22:54;;;;;;;6.88;4.47;;;;;;;;;;4918771;28;20059;-86
2021/05/13 01:25:20;;;;;;;6.28;4.28;;;;;;;;;;4917934;28;20654;-85
2021/05/13 01:27:47;;;;;;;6.50;3.70;;;;;;;;;;4924910;28;20067;-86
2021/05/13 01:30:16;;;;;;;6.47;4.30;;;;;;;;;;4921041;28;20039;-85
2021/05/13 01:32:43;;;;;;;7.45;4.38;;;;;;;;;;4930243;28;20113;-85
2021/05/13 01:35:10;;;;;;;6.95;4.00;;;;;;;;;;4931855;28;20082;-85
2021/05/13 01:37:36;;;;;;;6.72;4.40;;;;;;;;;;4915119;28;20518;-86
2021/05/13 01:40:04;;;;;;;6.28;4.07;;;;;;;;;;4937056;28;20072;-86
2021/05/13 01:42:30;;;;;;;6.60;4.45;;;;;;;;;;4917190;29;20076;-85
2021/05/13 01:44:57;;;;;;;6.82;4.38;;;;;;;;;;4934436;28;20044;-85
2021/05/13 01:47:23;;;;;;;8.43;4.70;;;;;;;;;;4918792;28;20048;-85
2021/05/13 01:49:50;;;;;;;6.40;4.57;;;;;;;;;;4915845;28;20111;-85
2021/05/13 01:52:16;;;;;;;7.03;4.38;;;;;;;;;;4927319;28;20122;-84
2021/05/13 01:54:43;;;;;;;7.18;4.60;;;;;;;;;;4942123;28;20063;-85
2021/05/13 01:57:09;;;;;;;7.93;5.07;;;;;;;;;;4941721;28;20058;-84
2021/05/13 01:59:36;;;;;;;6.07;4.20;;;;;;;;;;4922328;28;20067;-85
2021/05/13 02:02:03;;;;;;;5.88;4.10;;;;;;;;;;4942551;28;20064;-85
2021/05/13 02:04:30;;;;;;;7.75;4.57;;;;;;;;;;4915603;28;20337;-83
2021/05/13 02:06:57;;;;;;;6.22;4.28;;;;;;;;;;4923750;28;20051;-84
2021/05/13 02:09:23;;;;;;;6.32;4.10;;;;;;;;;;4924592;28;20061;-84
2021/05/13 02:11:50;;;;;;;6.50;4.47;;;;;;;;;;4920316;29;20441;-84
2021/05/13 02:14:16;;;;;;;6.43;4.13;;;;;;;;;;4941279;28;20072;-84
2021/05/13 02:16:43;;;;;;;6.65;3.88;;;;;;;;;;4927308;28;20125;-85
2021/05/13 02:19:09;;;;;;;7.40;4.80;;;;;;;;;;4934596;28;20514;-84
2021/05/13 02:21:36;;;;;;;6.47;4.35;;;;;;;;;;4922575;28;20155;-84
2021/05/13 02:24:02;;;;;;;6.65;4.28;;;;;;;;;;4918256;29;20059;-84
2021/05/13 02:26:29;;;;;;;6.55;4.18;;;;;;;;;;4927409;28;20055;-84
2021/05/13 02:28:55;;;;;;;8.07;4.65;;;;;;;;;;4945792;28;20074;-85
2021/05/13 02:31:22;;;;;;;8.10;4.63;;;;;;;;;;4947667;28;20079;-84
2021/05/13 02:33:49;;;;;;;7.03;4.30;;;;;;;;;;4942253;28;20672;-85
2021/05/13 02:36:16;;;;;;;5.45;4.00;;;;;;;;;;4925178;28;20186;-85
2021/05/13 02:38:42;;;;;;;7.03;4.40;;;;;;;;;;4914267;29;20483;-85
2021/05/13 02:41:09;;;;;;;5.90;4.05;;;;;;;;;;4941439;28;20056;-85
2021/05/13 02:43:35;;;;;;;6.22;4.18;;;;;;;;;;4935663;28;20115;-84
2021/05/13 02:46:02;;;;;;;7.45;4.78;;;;;;;;;;4920020;28;20071;-84
2021/05/13 02:48:28;;;;;;;6.05;4.18;;;;;;;;;;4923006;28;20804;-84
2021/05/13 02:50:55;;;;;;;5.85;4.10;;;;;;;;;;4934443;28;20472;-84
2021/05/13 02:53:21;;;;;;;5.80;3.90;;;;;;;;;;4919996;28;20515;-84
2021/05/13 02:55:48;;;;;;;6.28;4.18;;;;;;;;;;4926167;28;20555;-85
2021/05/13 02:58:14;;;;;;;5.57;3.75;;;;;;;;;;4892211;28;20048;-84
2021/05/13 03:03:30;;;;;;;7.03;4.15;;;;;;;;;;4909224;28;20055;-86
2021/05/13 03:05:56;;;;;;;6.28;3.80;;;;;;;;;;4938248;28;20055;-85
2021/05/13 03:08:23;;;;;;;6.13;4.25;;;;;;;;;;4941093;28;20067;-84
2021/05/13 03:10:49;;;;;;;6.05;4.03;;;;;;;;;;4939903;28;20578;-84
2021/05/13 03:13:24;;;;;;;6.75;4.30;;;;;;;;;;4944070;28;20055;-84
2021/05/13 03:15:51;;;;;;;6.53;4.35;;;;;;;;;;4923986;28;20614;-84
2021/05/13 03:18:19;;;;;;;5.55;3.80;;;;;;;;;;4940866;28;20091;-85
2021/05/13 03:21:09;;;;;;;4.65;3.80;;;;;;;;;;4946053;28;20062;-84
2021/05/13 03:23:58;;;;;;;5.80;4.10;;;;;;;;;;4928011;28;20052;-85
2021/05/13 03:26:28;;;;;;;5.30;3.88;;;;;;;;;;4941355;28;20068;-84
2021/05/13 03:28:55;;;;;;;5.85;4.32;;;;;;;;;;4946645;28;20420;-85
2021/05/13 03:31:21;;;;;;;5.63;3.92;;;;;;;;;;4928340;28;20055;-85
2021/05/13 03:33:48;;;;;;;4.55;3.63;;;;;;;;;;4935201;28;20111;-84
2021/05/13 03:36:14;;;;;;;4.88;3.70;;;;;;;;;;4915018;28;20547;-84
2021/05/13 03:38:40;;;;;;;5.65;4.05;;;;;;;;;;4933017;28;20058;-85
2021/05/13 03:41:07;;;;;;;5.03;3.70;;;;;;;;;;4926785;28;20055;-84
2021/05/13 03:43:34;;;;;;;6.15;3.95;;;;;;;;;;4942467;28;20694;-85
2021/05/13 03:46:00;;;;;;;5.65;3.92;;;;;;;;;;4942792;28;20056;-85
2021/05/13 03:48:27;;;;;;;5.13;3.78;;;;;;;;;;4924008;28;20059;-84
2021/05/13 03:50:53;;;;;;;4.75;3.65;;;;;;;;;;4914413;28;20456;-85
2021/05/13 03:53:20;;;;;;;5.05;3.60;;;;;;;;;;4913430;28;20051;-85
2021/05/13 03:55:51;;;;;;;5.10;3.67;;;;;;;;;;4924095;28;20071;-85
2021/05/13 03:58:17;;;;;;;5.65;3.75;;;;;;;;;;4935982;28;20067;-84
2021/05/13 04:03:19;;;;;;;5.55;3.78;;;;;;;;;;4927416;28;20503;-85
2021/05/13 04:05:46;;;;;;;5.90;3.72;;;;;;;;;;4929396;28;20059;-85
2021/05/13 04:08:13;;;;;;;5.57;4.10;;;;;;;;;;4920295;28;20608;-85
2021/05/13 04:10:40;;;;;;;5.65;3.67;;;;;;;;;;4941268;28;20055;-85
2021/05/13 04:13:09;;;;;;;4.75;3.40;;;;;;;;;;4911223;28;20405;-84
2021/05/13 04:15:36;;;;;;;5.28;3.78;;;;;;;;;;4938659;28;20096;-84
2021/05/13 04:18:03;;;;;;;4.85;3.90;;;;;;;;;;4911298;28;20099;-85
2021/05/13 04:20:30;;;;;;;4.78;3.80;;;;;;;;;;4915245;28;20499;-86
2021/05/13 04:23:02;;;;;;;5.10;3.80;;;;;;;;;;4929603;28;20740;-85
2021/05/13 04:25:29;;;;;;;4.45;3.72;;;;;;;;;;4936235;28;20154;-85
2021/05/13 04:27:55;;;;;;;4.70;3.70;;;;;;;;;;4925790;28;20063;-85
2021/05/13 04:30:22;;;;;;;4.28;3.83;;;;;;;;;;4922646;28;20119;-85
2021/05/13 04:32:48;;;;;;;4.60;3.55;;;;;;;;;;4938131;28;20056;-84
2021/05/13 04:35:15;;;;;;;4.97;3.58;;;;;;;;;;4927987;28;20188;-84
2021/05/13 04:37:41;;;;;;;5.97;3.38;;;;;;;;;;4937528;28;20098;-85
2021/05/13 04:40:08;;;;;;;5.03;3.45;;;;;;;;;;4950440;28;20118;-84
2021/05/13 04:42:34;;;;;;;5.32;3.80;;;;;;;;;;4930714;28;20524;-84
2021/05/13 04:45:01;;;;;;;4.80;3.65;;;;;;;;;;4940659;28;20043;-85
2021/05/13 04:50:09;;;;;;;;;;;;;;;;;;4938625;28;20819;-84
2021/05/13 04:52:39;;;;;;;5.07;3.65;;;;;;;;;;4930211;28;20013;-84
2021/05/13 04:55:06;;;;;;;5.85;3.75;;;;;;;;;;4921700;28;20051;-85
2021/05/13 04:57:35;;;;;;;5.43;3.95;;;;;;;;;;4940928;28;20421;-85
2021/05/13 05:00:02;;;;;;;4.78;3.63;;;;;;;;;;4925190;28;20114;-86
2021/05/13 05:02:29;;;;;;;4.18;3.17;;;;;;;;;;4923133;28;20071;-85
2021/05/13 05:04:56;;;;;;;4.22;3.47;;;;;;;;;;4935442;28;20558;-86
2021/05/13 05:07:22;;;;;;;4.72;3.75;;;;;;;;;;4918914;28;20505;-86
2021/05/13 05:09:49;;;;;;;4.72;3.42;;;;;;;;;;4922340;28;20567;-86
2021/05/13 05:12:15;;;;;;;5.10;3.55;;;;;;;;;;4921086;28;20068;-86
2021/05/13 05:14:42;;;;;;;3.97;2.97;;;;;;;;;;4922052;28;20512;-86
2021/05/13 05:17:09;;;;;;;4.28;3.40;;;;;;;;;;4930042;28;20044;-85
2021/05/13 05:19:36;;;;;;;4.82;3.55;;;;;;;;;;4921840;28;20055;-85
2021/05/13 05:22:03;;;;;;;4.95;3.70;;;;;;;;;;4907976;29;20067;-84
2021/05/13 05:24:30;;;;;;;4.63;3.42;;;;;;;;;;4925291;28;20062;-84
2021/05/13 05:26:56;;;;;;;4.47;3.47;;;;;;;;;;4915821;28;20067;-85
2021/05/13 05:29:23;;;;;;;4.25;3.42;;;;;;;;;;4919146;28;20058;-84
2021/05/13 05:31:49;;;;;;;5.18;3.45;;;;;;;;;;4936053;28;20111;-84
2021/05/13 05:34:16;;;;;;;5.32;3.70;;;;;;;;;;4938408;28;20043;-85
2021/05/13 05:36:42;;;;;;;4.22;3.42;;;;;;;;;;4938584;28;20100;-84
2021/05/13 05:39:08;;;;;;;3.80;3.30;;;;;;;;;;4916816;28;20154;-85
2021/05/13 05:41:35;;;;;;;5.05;3.70;;;;;;;;;;4924744;29;20094;-85
2021/05/13 05:44:01;;;;;;;5.05;3.60;;;;;;;;;;4919024;28;20048;-85
2021/05/13 05:46:28;;;;;;;5.15;3.50;;;;;;;;;;4938393;28;20064;-84
2021/05/13 05:48:55;;;;;;;4.68;3.22;;;;;;;;;;4928654;28;20460;-84
2021/05/13 05:51:22;;;;;;;4.70;3.42;;;;;;;;;;4918994;28;20575;-85
2021/05/13 05:53:48;;;;;;;5.07;3.38;;;;;;;;;;4933274;28;20072;-85
2021/05/13 05:56:15;;;;;;;5.43;3.67;;;;;;;;;;4919550;28;20072;-84
2021/05/13 05:58:41;;;;;;;8.60;4.15;;;;;;;;;;4924551;28;20595;-85
2021/05/13 06:01:07;;;;;;;4.57;3.17;;;;;;;;;;4915507;28;20512;-85
2021/05/13 06:03:34;;;;;;;3.75;3.20;;;;;;;;;;4949358;28;20106;-85
2021/05/13 06:06:00;;;;;;;5.43;3.20;;;;;;;;;;4930458;28;20059;-85
2021/05/13 06:08:27;;;;;;;4.55;3.33;;;;;;;;;;4929433;28;20160;-85
2021/05/13 06:10:54;;;;;;;4.85;3.55;;;;;;;;;;4936189;28;20095;-85
2021/05/13 06:13:20;;;;;;;5.50;3.42;;;;;;;;;;4935697;28;20028;-85
2021/05/13 06:15:47;;;;;;;3.85;3.42;;;;;;;;;;4916564;28;20093;-85
2021/05/13 06:18:13;;;;;;;4.70;3.53;;;;;;;;;;4923818;28;20520;-84
2021/05/13 06:20:40;;;;;;;4.68;3.38;;;;;;;;;;4940520;28;20519;-85
2021/05/13 06:23:08;;;;;;;5.10;3.67;;;;;;;;;;4934318;28;20107;-85
2021/05/13 06:25:36;;;;;;;4.72;3.45;;;;;;;;;;4946543;28;20063;-85
2021/05/13 06:28:03;;;;;;;5.18;3.60;;;;;;;;;;4934901;28;20040;-85
2021/05/13 06:30:29;;;;;;;4.90;3.53;;;;;;;;;;4948978;28;20085;-85
2021/05/13 06:32:56;;;;;;;4.43;3.40;;;;;;;;;;4925819;29;20059;-85
2021/05/13 06:35:22;;;;;;;4.00;3.20;;;;;;;;;;4919385;28;20457;-85
2021/05/13 06:37:49;;;;;;;4.78;3.22;;;;;;;;;;4921164;29;20064;-85
2021/05/13 06:40:16;;;;;;;5.22;3.60;;;;;;;;;;4948439;28;20084;-86
2021/05/13 06:42:43;;;;;;;4.15;3.70;;;;;;;;;;4931651;28;20558;-85
2021/05/13 06:45:10;;;;;;;4.88;3.63;;;;;;;;;;4943779;28;20665;-85
2021/05/13 06:47:39;;;;;;;4.65;3.58;;;;;;;;;;4942206;28;20574;-85
2021/05/13 06:50:06;;;;;;;5.25;3.25;;;;;;;;;;4948237;28;20050;-85
2021/05/13 06:52:32;;;;;;;4.78;3.47;;;;;;;;;;4915308;28;20051;-85
2021/05/13 06:54:59;;;;;;;4.05;3.20;;;;;;;;;;4925396;28;20058;-85
2021/05/13 06:57:25;;;;;;;3.88;3.25;;;;;;;;;;4923004;28;22189;-83
2021/05/13 06:59:52;;;;;;;5.13;3.35;;;;;;;;;;4916449;28;20050;-85
2021/05/13 07:02:20;;;;;;;4.95;3.70;;;;;;;;;;4921355;28;20063;-84
2021/05/13 07:04:46;;;;;;;5.40;3.83;;;;;;;;;;4926901;28;20036;-84
2021/05/13 07:07:13;;;;;;;6.32;3.47;;;;;;;;;;4916131;28;20036;-84
2021/05/13 07:09:39;;;;;;;4.75;3.25;;;;;;;;;;4937151;28;20095;-84
2021/05/13 07:12:06;;;;;;;4.90;3.25;;;;;;;;;;4923732;28;20064;-83
2021/05/13 07:14:32;;;;;;;4.88;3.30;;;;;;;;;;4935971;28;20062;-85
2021/05/13 07:16:59;;;;;;;4.70;3.78;;;;;;;;;;4910809;29;20070;-85
2021/05/13 07:19:25;;;;;;;4.95;3.17;;;;;;;;;;4927780;28;20474;-85
2021/05/13 07:21:54;;;;;;;4.35;3.05;;;;;;;;;;4921322;28;20456;-85
2021/05/13 07:24:21;;;;;;;4.22;3.05;;;;;;;;;;4927030;28;20063;-85
2021/05/13 07:26:47;;;;;;;4.65;3.15;;;;;;;;;;4941522;28;20127;-85
2021/05/13 07:29:14;;;;;;;4.32;3.28;;;;;;;;;;4932549;28;20055;-85
2021/05/13 07:31:41;;;;;;;3.85;3.13;;;;;;;;;;4920809;28;20785;-85
2021/05/13 07:34:07;;;;;;;4.70;3.40;;;;;;;;;;4914406;28;20063;-86
2021/05/13 07:36:34;;;;;;;4.97;3.25;;;;;;;;;;4930517;28;20473;-85
2021/05/13 07:39:00;;;;;;;5.38;3.20;;;;;;;;;;4931539;28;20040;-85
2021/05/13 07:41:27;;;;;;;4.55;3.10;;;;;;;;;;4938502;28;20119;-85
2021/05/13 07:43:56;;;;;;;4.95;3.63;;;;;;;;;;4932333;28;20087;-85
2021/05/13 07:46:32;;;;;;;5.40;3.00;;;;;;;;;;4922653;28;20436;-84
2021/05/13 07:48:59;;;;;;;3.65;2.60;;;;;;;;;;4940407;28;20094;-85
2021/05/13 07:51:25;;;;;;;4.25;2.83;;;;;;;;;;4925136;28;20507;-85
2021/05/13 07:53:52;;;;;;;4.22;2.97;;;;;;;;;;4923618;28;20052;-86
2021/05/13 07:56:18;;;;;;;4.53;2.80;;;;;;;;;;4927559;28;20549;-85
2021/05/13 07:58:44;;;;;;;4.20;2.80;;;;;;;;;;4926578;28;20076;-85
2021/05/13 08:01:11;;;;;;;4.07;2.90;;;;;;;;;;4942384;28;20078;-85
2021/05/13 08:03:38;;;;;;;4.45;2.67;;;;;;;;;;4943702;28;20134;-85
2021/05/13 08:06:04;;;;;;;3.95;2.72;;;;;;;;;;4935528;28;20043;-85
2021/05/13 08:08:31;;;;;;;3.67;2.72;;;;;;;;;;4937187;28;20047;-85
2021/05/13 08:10:57;;;;;;;5.25;2.70;;;;;;;;;;4921669;28;20051;-84
2021/05/13 08:13:24;;;;;;;3.55;2.92;;;;;;;;;;4924641;28;22608;-85
2021/05/13 08:15:51;;;;;;;3.63;2.25;;;;;;;;;;4916344;29;20071;-85
2021/05/13 08:18:17;;;;;;;3.42;2.60;;;;;;;;;;4936007;28;20674;-85
2021/05/13 08:20:43;;;;;;;3.60;2.80;;;;;;;;;;4924969;28;20064;-84
2021/05/13 08:23:11;;;;;;;4.05;2.58;;;;;;;;;;4941670;28;20495;-85
2021/05/13 08:25:37;;;;;;;3.95;2.63;;;;;;;;;;4942325;28;20071;-86
2021/05/13 08:28:04;;;;;;;3.30;2.47;;;;;;;;;;4933415;28;20055;-85
2021/05/13 08:30:30;;;;;;;3.50;2.50;;;;;;;;;;4912735;28;20147;-85
2021/05/13 08:32:57;;;;;;;3.90;2.60;;;;;;;;;;4941398;28;20090;-85
2021/05/13 08:35:23;;;;;;;3.88;2.70;;;;;;;;;;4928933;28;20075;-85
2021/05/13 08:37:50;;;;;;;2.90;2.38;;;;;;;;;;4921606;29;20567;-85
2021/05/13 08:40:16;;;;;;;4.63;2.60;;;;;;;;;;4926026;28;20063;-84
2021/05/13 08:42:43;;;;;;;3.13;2.20;;;;;;;;;;4932597;28;20087;-85
2021/05/13 08:45:09;;;;;;;3.67;2.40;;;;;;;;;;4936360;28;20538;-85
2021/05/13 08:47:41;;;;;;;4.00;2.58;;;;;;;;;;4923943;28;20056;-84
2021/05/13 08:50:08;;;;;;;3.28;2.20;;;;;;;;;;4925725;28;20119;-84
2021/05/13 08:52:35;;;;;;;3.58;2.30;;;;;;;;;;4931076;28;20074;-85
2021/05/13 08:55:02;;;;;;;3.90;2.20;;;;;;;;;;4933911;28;20036;-84
2021/05/13 08:57:28;;;;;;;4.22;2.25;;;;;;;;;;4923061;28;20068;-85
2021/05/13 08:59:57;;;;;;;3.53;2.10;;;;;;;;;;4917234;29;20079;-85
2021/05/13 09:02:27;;;;;;;2.85;2.38;;;;;;;;;;4921625;28;20044;-85
2021/05/13 09:04:56;;;;;;;2.72;2.00;;;;;;;;;;4922620;28;20028;-85
2021/05/13 09:07:27;;;;;;;3.47;2.25;;;;;;;;;;4927492;28;20055;-86
2021/05/13 09:10:10;;;;;;;4.67;2.20;;;;;;;;;;4934724;28;20109;-86
2021/05/13 09:12:37;;;;;;;4.78;2.17;;;;;;;;;;4921742;28;20462;-86
2021/05/13 09:15:05;;;;;;;2.63;1.90;;;;;;;;;;4944253;28;20060;-85
2021/05/13 09:17:32;;;;;;;3.13;2.10;;;;;;;;;;4920873;28;20048;-85
2021/05/13 09:20:02;;;;;;;2.75;2.03;;;;;;;;;;4919736;29;20027;-85
2021/05/13 09:22:29;;;;;;;3.08;1.80;;;;;;;;;;4926910;28;20059;-85
2021/05/13 09:24:59;;;;;;;3.03;2.00;;;;;;;;;;4935614;28;20118;-86
2021/05/13 09:27:46;;;;;;;3.35;1.90;;;;;;;;;;4917222;28;20669;-85
2021/05/13 09:30:19;;;;;;;3.45;1.60;;;;;;;;;;4909543;28;20107;-84
2021/05/13 09:32:48;;;;;;;2.42;1.70;;;;;;;;;;4930568;28;20087;-86
2021/05/13 09:35:22;;;;;;;3.08;1.60;;;;;;;;;;4922404;28;20468;-85
2021/05/13 09:37:48;;;;;;;3.22;1.80;;;;;;;;;;4942437;28;20094;-85
2021/05/13 09:40:19;;;;;;;2.78;1.73;;;;;;;;;;4942588;28;20071;-84
2021/05/13 09:42:45;;;;;;;2.65;1.95;;;;;;;;;;4919293;28;20071;-86
2021/05/13 09:45:12;;;;;;;2.90;2.15;;;;;;;;;;4930913;28;20095;-84
2021/05/13 09:47:39;;;;;;;2.88;1.88;;;;;;;;;;4909418;28;20040;-85
2021/05/13 09:50:14;;;;;;;2.65;1.90;;;;;;;;;;4912105;28;20035;-85
2021/05/13 09:52:41;;;;;;;4.88;2.33;;;;;;;;;;4904843;28;20078;-85
2021/05/13 09:55:11;;;;;;;2.85;1.70;;;;;;;;;;4937697;28;20719;-85
2021/05/13 09:57:38;;;;;;;3.45;1.83;;;;;;;;;;4929379;28;20851;-84
2021/05/13 10:00:06;;;;;;;2.72;1.67;;;;;;;;;;4912424;28;20040;-84
2021/05/13 10:02:35;;;;;;;2.60;1.95;;;;;;;;;;4917702;28;20064;-84
2021/05/13 10:05:03;;;;;;;3.35;1.77;;;;;;;;;;4933234;28;20510;-85
2021/05/13 10:07:29;;;;;;;3.45;1.70;;;;;;;;;;4935137;28;20182;-85
2021/05/13 10:09:56;;;;;;;3.45;1.95;;;;;;;;;;4917730;28;20538;-84
2021/05/13 10:12:22;;;;;;;3.25;1.80;;;;;;;;;;4939067;28;20218;-84
2021/05/13 10:14:52;;;;;;;2.33;1.75;;;;;;;;;;4939366;28;20071;-85
2021/05/13 10:17:19;;;;;;;3.67;1.48;;;;;;;;;;4924579;28;20048;-84
2021/05/13 10:19:52;;;;;;;3.58;1.70;;;;;;;;;;4923699;28;20126;-85
2021/05/13 10:22:19;;;;;;;3.28;1.63;;;;;;;;;;4903229;28;20043;-85
2021/05/13 10:24:46;;;;;;;2.83;1.83;;;;;;;;;;4934978;28;20060;-85
2021/05/13 10:27:19;;;;;;;2.35;1.55;;;;;;;;;;4938727;28;20457;-84
2021/05/13 10:29:46;;;;;;;2.53;1.70;;;;;;;;;;4923267;28;20687;-84
2021/05/13 10:34:54;;;;;;;2.95;1.70;;;;;;;;;;4943733;28;20127;-85
2021/05/13 10:37:37;;;;;;;2.75;1.75;;;;;;;;;;4943425;28;20068;-85
2021/05/13 10:40:14;;;;;;;2.63;1.63;;;;;;;;;;4929642;28;20039;-85
2021/05/13 10:42:42;;;;;;;2.63;1.88;;;;;;;;;;4908844;29;21216;-84
2021/05/13 10:45:23;;;;;;;3.33;1.83;;;;;;;;;;4944214;28;20578;-83
2021/05/13 10:48:21;;;;;;;2.92;1.63;;;;;;;;;;4910152;29;20184;-84
2021/05/13 10:50:48;;;;;;;2.97;1.48;;;;;;;;;;4925488;28;20920;-86
2021/05/13 10:53:42;;;;;;;4.82;1.77;;;;;;;;;;4920869;28;20050;-83
2021/05/13 10:56:24;;;;;;;3.70;1.80;;;;;;;;;;4931330;28;20480;-84
2021/05/13 10:59:08;;;;;;;2.22;1.40;;;;;;;;;;4931890;28;20040;-84
2021/05/13 11:01:35;;;;;;;3.50;1.65;;;;;;;;;;4914487;28;20434;-84
2021/05/13 11:04:21;;;;;;;2.42;1.55;;;;;;;;;;4929200;28;20087;-85
2021/05/13 11:06:48;;;;;;;3.65;1.60;;;;;;;;;;4932632;28;20372;-83
2021/05/13 11:09:33;;;;;;;3.63;1.38;;;;;;;;;;4936598;28;20050;-84
2021/05/13 11:12:09;;;;;;;3.15;1.63;;;;;;;;;;4938667;28;20504;-85
2021/05/13 11:14:56;;;;;;;2.47;1.52;;;;;;;;;;4925753;28;20275;-84
2021/05/13 11:20:30;;;;;;;3.55;2.00;;;;;;;;;;4924164;28;20080;-84
2021/05/13 11:23:00;;;;;;;2.78;1.50;;;;;;;;;;4946295;28;20116;-84
2021/05/13 11:25:33;;;;;;;2.38;1.65;;;;;;;;;;4928915;28;20445;-84
2021/05/13 11:28:00;;;;;;;2.70;1.70;;;;;;;;;;4943400;28;20063;-85
2021/05/13 11:30:30;;;;;;;3.28;1.77;;;;;;;;;;4920946;28;20126;-84
2021/05/13 11:32:59;;;;;;;1.92;1.50;;;;;;;;;;4926076;28;20063;-85
2021/05/13 11:35:26;;;;;;;3.47;1.55;;;;;;;;;;4920159;28;20127;-85
2021/05/13 11:37:54;;;;;;;3.05;1.60;;;;;;;;;;4931922;28;20564;-86
2021/05/13 11:40:25;;;;;;;2.65;1.58;;;;;;;;;;4915339;28;20114;-84
2021/05/13 11:42:55;;;;;;;3.83;1.70;;;;;;;;;;4907770;29;20124;-85
2021/05/13 11:45:22;;;;;;;2.53;1.50;;;;;;;;;;4930571;28;20473;-85
2021/05/13 11:47:49;;;;;;;3.53;1.58;;;;;;;;;;4930260;28;20044;-85
2021/05/13 11:50:29;;;;;;;3.10;1.70;;;;;;;;;;4938547;28;20110;-85
2021/05/13 11:53:05;;;;;;;4.63;1.67;;;;;;;;;;4934179;28;20063;-84
2021/05/13 11:55:32;;;;;;;2.97;1.80;;;;;;;;;;4939687;28;20078;-85
2021/05/13 11:57:58;;;;;;;3.80;1.63;;;;;;;;;;4932083;28;20536;-85
2021/05/13 12:00:25;;;;;;;2.95;1.55;;;;;;;;;;4926464;28;20067;-84
2021/05/13 12:03:08;;;;;;;3.70;1.45;;;;;;;;;;4924591;28;20448;-85
2021/05/13 12:05:54;;;;;;;4.00;1.65;;;;;;;;;;4934750;28;20092;-85
2021/05/13 12:08:22;;;;;;;3.15;1.60;;;;;;;;;;4918652;28;20505;-85
2021/05/13 12:10:49;;;;;;;2.80;1.48;;;;;;;;;;4939681;28;20078;-85
2021/05/13 12:13:15;;;;;;;2.67;1.50;;;;;;;;;;4915182;28;20465;-85
2021/05/13 12:15:42;;;;;;;2.42;1.40;;;;;;;;;;4933164;28;20139;-85
2021/05/13 12:18:09;;;;;;;2.05;1.45;;;;;;;;;;4938359;28;20071;-85
2021/05/13 12:20:37;;;;;;;4.47;1.45;;;;;;;;;;4936054;28;20630;-85
2021/05/13 12:23:04;;;;;;;3.88;1.77;;;;;;;;;;4938128;28;20076;-85
2021/05/13 12:25:31;;;;;;;2.90;1.67;;;;;;;;;;4911078;28;20126;-84
2021/05/13 12:27:57;;;;;;;3.13;1.38;;;;;;;;;;4922190;28;20062;-84
2021/05/13 12:30:24;;;;;;;3.08;1.65;;;;;;;;;;4934914;28;20071;-84
2021/05/13 12:32:51;;;;;;;3.55;1.70;;;;;;;;;;4941630;28;20059;-85
2021/05/13 12:35:23;;;;;;;3.83;1.77;;;;;;;;;;4924277;28;20055;-85
2021/05/13 12:37:50;;;;;;;2.90;1.60;;;;;;;;;;4920140;29;20067;-85
2021/05/13 12:40:18;;;;;;;2.83;1.40;;;;;;;;;;4909646;28;20032;-86
2021/05/13 12:42:44;;;;;;;4.20;1.60;;;;;;;;;;4940449;28;20567;-85
2021/05/13 12:45:21;;;;;;;3.00;1.48;;;;;;;;;;4936295;28;20574;-84
2021/05/13 12:48:01;;;;;;;3.85;1.60;;;;;;;;;;4935474;28;20071;-85
2021/05/13 12:50:28;;;;;;;2.45;1.30;;;;;;;;;;4918533;28;20075;-85
2021/05/13 12:53:20;;;;;;;4.45;1.85;;;;;;;;;;4916460;29;20088;-85
2021/05/13 12:55:46;;;;;;;2.47;1.70;;;;;;;;;;4934584;28;21089;-85
2021/05/13 12:58:14;;;;;;;3.72;1.65;;;;;;;;;;4931249;28;20126;-84
2021/05/13 13:00:41;;;;;;;3.20;1.75;;;;;;;;;;4908396;29;20126;-85
2021/05/13 13:03:16;;;;;;;3.97;1.80;;;;;;;;;;4946008;28;20125;-85
2021/05/13 13:05:43;;;;;;;3.33;1.80;;;;;;;;;;4920807;28;20071;-85
2021/05/13 13:08:09;;;;;;;2.83;1.58;;;;;;;;;;4936998;28;20496;-84
2021/05/13 13:10:42;;;;;;;3.13;1.60;;;;;;;;;;4923970;29;20063;-84
2021/05/13 13:13:29;;;;;;;2.67;1.63;;;;;;;;;;4920842;28;20103;-84
2021/05/13 13:18:26;;;;;;;3.40;1.75;;;;;;;;;;4924472;28;20071;-85
2021/05/13 13:20:52;;;;;;;2.75;1.42;;;;;;;;;;4934881;28;20047;-85
2021/05/13 13:23:28;;;;;;;1.98;1.30;;;;;;;;;;4932835;28;20063;-85
2021/05/13 13:26:01;;;;;;;3.33;1.63;;;;;;;;;;4939567;28;20040;-85
2021/05/13 13:28:28;;;;;;;2.72;1.50;;;;;;;;;;4910460;28;21970;-85
2021/05/13 13:30:58;;;;;;;2.47;1.50;;;;;;;;;;4925924;28;20055;-85
2021/05/13 13:33:25;;;;;;;3.28;1.33;;;;;;;;;;4936134;28;20059;-85
2021/05/13 13:35:52;;;;;;;2.47;1.48;;;;;;;;;;4923324;28;20047;-84
2021/05/13 13:38:19;;;;;;;3.42;1.60;;;;;;;;;;4935839;28;20663;-85
2021/05/13 13:40:47;;;;;;;2.70;1.55;;;;;;;;;;4924780;28;20449;-85
2021/05/13 13:43:14;;;;;;;3.42;1.60;;;;;;;;;;4923107;28;20055;-85
2021/05/13 13:45:42;;;;;;;3.75;1.60;;;;;;;;;;4918539;28;20103;-85
2021/05/13 13:48:09;;;;;;;3.30;1.50;;;;;;;;;;4944430;28;20040;-85
2021/05/13 13:50:35;;;;;;;2.17;1.45;;;;;;;;;;4923577;28;20031;-85
2021/05/13 13:53:03;;;;;;;3.95;1.60;;;;;;;;;;4941558;28;20512;-85
2021/05/13 13:55:29;;;;;;;3.13;1.75;;;;;;;;;;4915638;28;20091;-85
2021/05/13 13:57:56;;;;;;;2.80;1.30;;;;;;;;;;4921434;28;20067;-85
2021/05/13 14:00:23;;;;;;;3.08;1.35;;;;;;;;;;4928083;28;20133;-85
2021/05/13 14:02:52;;;;;;;4.07;1.70;;;;;;;;;;4941212;28;20170;-84
2021/05/13 14:05:22;;;;;;;3.65;1.60;;;;;;;;;;4919607;28;20115;-85
2021/05/13 14:07:48;;;;;;;2.92;1.60;;;;;;;;;;4918565;28;20067;-85
2021/05/13 14:10:16;;;;;;;2.92;1.60;;;;;;;;;;4947232;28;20040;-84
2021/05/13 14:12:43;;;;;;;1.80;1.20;;;;;;;;;;4918224;28;20036;-84
2021/05/13 14:15:10;;;;;;;3.08;1.40;;;;;;;;;;4915681;28;20052;-85
2021/05/13 14:17:37;;;;;;;3.35;1.40;;;;;;;;;;4938915;28;20130;-84
2021/05/13 14:20:05;;;;;;;3.67;1.45;;;;;;;;;;4935684;28;20090;-84
2021/05/13 14:22:31;;;;;;;2.83;1.40;;;;;;;;;;4939003;28;20040;-85
2021/05/13 14:24:58;;;;;;;2.97;1.60;;;;;;;;;;4926773;28;20044;-85
2021/05/13 14:27:24;;;;;;;3.17;1.33;;;;;;;;;;4922113;28;20052;-84
2021/05/13 14:29:51;;;;;;;2.80;1.20;;;;;;;;;;4944340;28;20066;-84
2021/05/13 14:32:17;;;;;;;2.33;1.42;;;;;;;;;;4923435;28;20551;-84
2021/05/13 14:34:44;;;;;;;2.85;1.40;;;;;;;;;;4912465;29;20075;-84
2021/05/13 14:37:10;;;;;;;3.10;1.50;;;;;;;;;;4930114;28;20123;-84
2021/05/13 14:39:37;;;;;;;2.55;1.40;;;;;;;;;;4924157;29;20412;-84
2021/05/13 14:42:04;;;;;;;2.33;1.35;;;;;;;;;;4931783;28;20593;-85
2021/05/13 14:44:30;;;;;;;4.20;1.60;;;;;;;;;;4929377;28;20067;-85
2021/05/13 14:46:58;;;;;;;2.60;1.60;;;;;;;;;;4946690;28;20114;-85
2021/05/13 14:49:29;;;;;;;3.45;1.60;;;;;;;;;;4938834;28;20432;-85
2021/05/13 14:51:56;;;;;;;2.60;1.50;;;;;;;;;;4945724;28;20743;-84
2021/05/13 14:54:22;;;;;;;2.55;1.30;;;;;;;;;;4917590;28;20035;-85
2021/05/13 14:57:10;;;;;;;4.38;1.60;;;;;;;;;;4927704;28;20056;-85
2021/05/13 14:59:39;;;;;;;3.35;1.52;;;;;;;;;;4928672;28;20594;-84
2021/05/13 15:02:10;;;;;;;2.63;1.58;;;;;;;;;;4920958;28;20067;-85
2021/05/13 15:04:36;;;;;;;2.63;1.50;;;;;;;;;;4929563;28;20126;-85
2021/05/13 15:07:03;;;;;;;2.55;1.50;;;;;;;;;;4942314;28;20055;-85
2021/05/13 15:09:29;;;;;;;2.10;1.20;;;;;;;;;;4914593;28;20060;-86
2021/05/13 15:11:56;;;;;;;2.95;1.30;;;;;;;;;;4915898;28;20115;-85